Time;durP1;ratioP1;P1;durP2;ratioP2;P2;SDS_P1;SDS_P2;PMS_P1;PMS_P2;Temp;Humidity;BMP_temperature;BMP_pressure;BME280_temperature;BME280_humidity;BME280_pressure;Samples;Min_cycle;Max_cycle;Signal;HPM_P1;HPM_P2
2023/07/29 00:01:46;;;;;;;;;;;;;;;25.20;42.99;100828.25;5059280;28;20404;-82
2023/07/29 00:04:12;;;;;;;;;;;;;;;25.18;43.04;100825.84;5059102;28;19917;-82
2023/07/29 00:06:37;;;;;;;;;;;;;;;25.16;43.10;100821.88;5060182;28;19924;-81
2023/07/29 00:09:03;;;;;;;;;;;;;;;25.15;43.01;100823.00;5057185;28;19984;-82
2023/07/29 00:11:28;;;;;;;;;;;;;;;25.12;43.05;100815.44;5056092;28;20343;-82
2023/07/29 00:13:54;;;;;;;;;;;;;;;25.10;43.01;100817.75;5056850;28;21197;-82
2023/07/29 00:16:21;;;;;;;;;;;;;;;25.08;42.98;100820.03;5056189;28;20019;-83
2023/07/29 00:18:47;;;;;;;;;;;;;;;25.04;43.10;100808.97;5055488;28;19928;-82
2023/07/29 00:21:12;;;;;;;;;;;;;;;25.02;43.17;100818.69;5060484;28;19916;-82
2023/07/29 00:23:38;;;;;;;;;;;;;;;25.00;43.21;100808.84;5056156;28;19924;-82
2023/07/29 00:26:03;;;;;;;;;;;;;;;24.97;43.35;100812.25;5061040;28;20372;-82
2023/07/29 00:28:29;;;;;;;;;;;;;;;24.95;43.23;100817.25;5062690;28;19943;-82
2023/07/29 00:30:54;;;;;;;;;;;;;;;24.92;43.18;100811.66;5060271;28;20315;-83
2023/07/29 00:33:20;;;;;;;;;;;;;;;24.89;43.29;100820.59;5057429;28;19974;-82
2023/07/29 00:35:46;;;;;;;;;;;;;;;24.85;43.31;100823.22;5057118;28;19927;-83
2023/07/29 00:38:11;;;;;;;;;;;;;;;24.83;43.29;100820.03;5059415;28;19917;-82
2023/07/29 00:40:37;;;;;;;;;;;;;;;24.79;43.58;100816.38;5060520;28;19917;-82
2023/07/29 00:43:02;;;;;;;;;;;;;;;24.74;43.30;100816.56;5062824;28;19948;-82
2023/07/29 00:45:29;;;;;;;;;;;;;;;24.71;43.40;100817.25;5060727;28;19944;-82
2023/07/29 00:47:54;;;;;;;;;;;;;;;24.67;43.42;100821.84;5061010;28;19924;-83
2023/07/29 00:50:19;;;;;;;;;;;;;;;24.64;43.48;100814.31;5062857;28;19931;-83
2023/07/29 00:52:45;;;;;;;;;;;;;;;24.59;43.56;100815.31;5063272;28;19924;-82
2023/07/29 00:55:11;;;;;;;;;;;;;;;24.58;43.33;100807.44;5060560;28;19928;-82
2023/07/29 00:57:36;;;;;;;;;;;;;;;24.56;43.47;100809.72;5063783;28;19931;-83
2023/07/29 01:00:03;;;;;;;;;;;;;;;24.54;43.50;100799.09;5063171;28;19917;-82
2023/07/29 01:02:29;;;;;;;;;;;;;;;24.53;43.84;100804.91;5060446;28;19920;-83
2023/07/29 01:04:56;;;;;;;;;;;;;;;24.52;43.70;100801.38;5060924;28;19931;-83
2023/07/29 01:07:28;;;;;;;;;;;;;;;24.51;43.68;100796.25;5064539;28;19931;-83
2023/07/29 01:09:53;;;;;;;;;;;;;;;24.49;43.81;100795.78;5063698;28;20303;-82
2023/07/29 01:12:22;;;;;;;;;;;;;;;24.50;43.79;100800.13;5062495;28;19925;-82
2023/07/29 01:14:50;;;;;;;;;;;;;;;24.48;43.89;100797.72;5061037;28;20192;-82
2023/07/29 01:17:22;;;;;;;;;;;;;;;24.45;43.90;100792.94;5060524;28;19916;-82
2023/07/29 01:20:05;;;;;;;;;;;;;;;24.44;43.85;100794.09;5058978;28;19984;-83
2023/07/29 01:22:32;;;;;;;;;;;;;;;24.43;43.93;100789.75;5055297;28;19916;-82
2023/07/29 01:24:58;;;;;;;;;;;;;;;24.44;43.98;100785.06;5057105;28;20005;-82
2023/07/29 01:27:23;;;;;;;;;;;;;;;24.44;44.18;100787.81;5062998;28;19936;-82
2023/07/29 01:29:49;;;;;;;;;;;;;;;24.43;44.33;100789.75;5062889;28;19939;-82
2023/07/29 01:32:25;;;;;;;;;;;;;;;24.39;44.49;100788.81;5062141;28;19970;-82
2023/07/29 01:34:57;;;;;;;;;;;;;;;24.36;44.33;100784.81;5060778;28;19974;-82
2023/07/29 01:37:25;;;;;;;;;;;;;;;24.35;44.31;100787.88;5065380;28;20304;-82
2023/07/29 01:39:53;;;;;;;;;;;;;;;24.33;44.45;100784.69;5059878;28;20384;-82
2023/07/29 01:42:19;;;;;;;;;;;;;;;24.30;44.38;100780.69;5060420;28;19924;-82
2023/07/29 01:44:44;;;;;;;;;;;;;;;24.29;44.40;100786.53;5059400;28;20380;-82
2023/07/29 01:47:10;;;;;;;;;;;;;;;24.29;44.45;100789.25;5060631;28;19920;-82
2023/07/29 01:49:35;;;;;;;;;;;;;;;24.27;44.50;100784.09;5059645;28;20033;-82
2023/07/29 01:52:01;;;;;;;;;;;;;;;24.26;44.58;100785.22;5060041;28;19921;-82
2023/07/29 01:54:26;;;;;;;;;;;;;;;24.26;44.41;100795.38;5058399;28;20011;-82
2023/07/29 01:56:51;;;;;;;;;;;;;;;24.24;44.67;100792.19;5059779;28;20542;-82
2023/07/29 01:59:17;;;;;;;;;;;;;;;24.23;44.87;100802.31;5057688;28;19920;-83
2023/07/29 02:01:42;;;;;;;;;;;;;;;24.22;44.95;100800.72;5064236;28;19917;-82
2023/07/29 02:04:08;;;;;;;;;;;;;;;24.19;44.76;100804.13;5057272;28;19927;-82
2023/07/29 02:06:33;;;;;;;;;;;;;;;24.14;44.79;100798.88;5057646;28;20171;-82
2023/07/29 02:08:58;;;;;;;;;;;;;;;24.09;44.80;100799.91;5056149;28;20373;-82
2023/07/29 02:11:27;;;;;;;;;;;;;;;24.08;45.07;100802.97;5064953;28;20398;-83
2023/07/29 02:13:53;;;;;;;;;;;;;;;24.04;45.19;100808.31;5063945;28;21229;-82
2023/07/29 02:16:18;;;;;;;;;;;;;;;24.03;45.30;100805.91;5063478;28;20495;-82
2023/07/29 02:18:44;;;;;;;;;;;;;;;24.02;45.07;100807.03;5055310;28;19931;-82
2023/07/29 02:21:09;;;;;;;;;;;;;;;24.00;45.17;100806.59;5057031;28;19978;-82
2023/07/29 02:23:34;;;;;;;;;;;;;;;23.96;45.18;100801.00;5060578;28;19916;-82
2023/07/29 02:26:00;;;;;;;;;;;;;;;23.92;44.98;100802.00;5062264;28;19924;-82
2023/07/29 02:28:25;;;;;;;;;;;;;;;23.90;45.17;100799.63;5060829;28;19979;-83
2023/07/29 02:31:09;;;;;;;;;;;;;;;23.90;45.05;100794.13;5059940;28;20380;-83
2023/07/29 02:33:34;;;;;;;;;;;;;;;23.89;45.01;100798.00;5056958;28;19920;-82
2023/07/29 02:35:59;;;;;;;;;;;;;;;23.87;44.99;100803.00;5058085;28;20458;-83
2023/07/29 02:38:24;;;;;;;;;;;;;;;23.85;44.98;100807.22;5057363;28;19921;-82
2023/07/29 02:40:50;;;;;;;;;;;;;;;23.84;45.22;100808.34;5062960;28;19932;-83
2023/07/29 02:43:15;;;;;;;;;;;;;;;23.80;45.58;100805.50;5056731;28;19924;-82
2023/07/29 02:45:41;;;;;;;;;;;;;;;23.74;45.58;100804.91;5061889;28;19916;-83
2023/07/29 02:48:06;;;;;;;;;;;;;;;23.69;45.49;100810.56;5056809;28;20007;-83
2023/07/29 02:50:31;;;;;;;;;;;;;;;23.67;45.59;100810.09;5060043;28;19920;-82
2023/07/29 02:52:57;;;;;;;;;;;;;;;23.65;45.30;100809.63;5060824;28;19927;-83
2023/07/29 02:55:22;;;;;;;;;;;;;;;23.64;45.14;100810.75;5058161;28;19923;-82
2023/07/29 02:57:47;;;;;;;;;;;;;;;23.63;45.17;100806.44;5063057;28;19917;-83
2023/07/29 03:00:13;;;;;;;;;;;;;;;23.61;45.19;100800.50;5061749;28;19924;-83
2023/07/29 03:02:38;;;;;;;;;;;;;;;23.60;45.26;100811.78;5058716;28;19917;-83
2023/07/29 03:05:03;;;;;;;;;;;;;;;23.58;45.12;100814.03;5060148;28;19917;-83
2023/07/29 03:07:29;;;;;;;;;;;;;;;23.56;45.27;100806.16;5056512;28;19916;-83
2023/07/29 03:09:54;;;;;;;;;;;;;;;23.57;45.21;100809.72;5060913;28;20304;-83
2023/07/29 03:12:21;;;;;;;;;;;;;;;23.55;45.33;100801.81;5056826;28;19924;-82
2023/07/29 03:14:47;;;;;;;;;;;;;;;23.55;45.51;100804.56;5064970;28;19920;-83
2023/07/29 03:17:13;;;;;;;;;;;;;;;23.56;45.62;100805.34;5066071;28;20320;-82
2023/07/29 03:19:38;;;;;;;;;;;;;;;23.55;45.51;100796.34;5059926;28;20051;-82
2023/07/29 03:22:03;;;;;;;;;;;;;;;23.55;45.67;100799.09;5063140;28;20384;-82
2023/07/29 03:24:29;;;;;;;;;;;;;;;23.55;45.81;100801.81;5062130;28;20352;-82
2023/07/29 03:26:54;;;;;;;;;;;;;;;23.53;45.71;100801.34;5058385;28;19967;-83
2023/07/29 03:29:20;;;;;;;;;;;;;;;23.54;45.84;100804.88;5059084;28;20376;-82
2023/07/29 03:31:45;;;;;;;;;;;;;;;23.56;45.65;100806.16;5060165;28;20361;-82
2023/07/29 03:34:12;;;;;;;;;;;;;;;23.57;45.69;100798.78;5059974;28;19916;-81
2023/07/29 03:36:37;;;;;;;;;;;;;;;23.55;45.66;100792.81;5060314;28;20203;-82
2023/07/29 03:39:03;;;;;;;;;;;;;;;23.56;45.80;100795.22;5060957;28;20003;-82
2023/07/29 03:41:28;;;;;;;;;;;;;;;23.54;45.87;100783.81;5059897;28;20365;-81
2023/07/29 03:43:54;;;;;;;;;;;;;;;23.49;45.71;100789.47;5063962;28;20325;-82
2023/07/29 03:46:21;;;;;;;;;;;;;;;23.46;45.71;100799.13;5064609;28;19924;-82
2023/07/29 03:48:47;;;;;;;;;;;;;;;23.46;46.15;100803.81;5064634;28;19947;-82
2023/07/29 03:51:12;;;;;;;;;;;;;;;23.45;46.11;100811.22;5059713;28;20036;-82
2023/07/29 03:53:37;;;;;;;;;;;;;;;23.44;46.32;100815.06;5062184;28;19961;-82
2023/07/29 03:56:03;;;;;;;;;;;;;;;23.45;46.44;100813.13;5062124;28;20396;-82
2023/07/29 03:58:28;;;;;;;;;;;;;;;23.48;46.38;100816.00;5060371;28;19917;-82
2023/07/29 04:00:53;;;;;;;;;;;;;;;23.52;46.34;100816.16;5055995;28;19931;-82
2023/07/29 04:03:19;;;;;;;;;;;;;;;23.58;46.41;100825.78;5065841;28;19927;-82
2023/07/29 04:05:44;;;;;;;;;;;;;;;23.60;46.22;100820.78;5062439;28;19935;-82
2023/07/29 04:08:09;;;;;;;;;;;;;;;23.61;46.31;100813.38;5064167;28;19925;-82
2023/07/29 04:10:35;;;;;;;;;;;;;;;23.62;46.33;100810.31;5064147;28;19924;-81
2023/07/29 04:13:00;;;;;;;;;;;;;;;23.64;46.38;100812.69;5059661;28;20004;-82
2023/07/29 04:15:26;;;;;;;;;;;;;;;23.66;46.47;100813.97;5064894;28;19928;-82
2023/07/29 04:17:51;;;;;;;;;;;;;;;23.67;46.43;100812.81;5066856;28;19939;-82
2023/07/29 04:20:16;;;;;;;;;;;;;;;23.69;46.43;100807.81;5069498;28;20518;-82
2023/07/29 04:22:42;;;;;;;;;;;;;;;23.71;46.70;100808.31;5071576;28;19962;-82
2023/07/29 04:25:07;;;;;;;;;;;;;;;23.72;46.82;100804.44;5065775;28;19917;-82
2023/07/29 04:27:32;;;;;;;;;;;;;;;23.74;46.82;100802.16;5059132;28;19917;-82
2023/07/29 04:29:58;;;;;;;;;;;;;;;23.79;46.77;100809.34;5061788;28;19940;-82
2023/07/29 04:32:23;;;;;;;;;;;;;;;23.84;46.89;100808.34;5064837;28;20610;-82
2023/07/29 04:34:48;;;;;;;;;;;;;;;23.87;46.98;100808.47;5061421;28;19924;-82
2023/07/29 04:37:14;;;;;;;;;;;;;;;23.93;47.00;100811.81;5068138;28;19969;-82
2023/07/29 04:39:39;;;;;;;;;;;;;;;23.97;47.11;100805.31;5063893;28;19929;-82
2023/07/29 04:42:05;;;;;;;;;;;;;;;24.03;47.22;100819.59;5065589;28;19980;-82
2023/07/29 04:44:30;;;;;;;;;;;;;;;24.07;47.24;100810.41;5062002;28;19920;-82
2023/07/29 04:46:55;;;;;;;;;;;;;;;24.11;47.13;100807.78;5061554;28;19927;-82
2023/07/29 04:49:21;;;;;;;;;;;;;;;24.16;47.27;100804.81;5062377;28;19924;-82
2023/07/29 04:51:46;;;;;;;;;;;;;;;24.23;47.24;100810.53;5066710;28;19920;-82
2023/07/29 04:54:11;;;;;;;;;;;;;;;24.30;47.38;100802.59;5062818;28;19923;-83
2023/07/29 04:56:37;;;;;;;;;;;;;;;24.38;47.29;100806.38;5064665;28;19917;-81
2023/07/29 04:59:02;;;;;;;;;;;;;;;24.45;47.14;100806.63;5057834;28;19916;-82
2023/07/29 05:01:27;;;;;;;;;;;;;;;24.50;47.33;100802.88;5065646;28;20297;-82
2023/07/29 05:03:53;;;;;;;;;;;;;;;24.52;47.41;100803.31;5062518;28;20411;-82
2023/07/29 05:06:19;;;;;;;;;;;;;;;24.53;47.39;100802.19;5062092;28;20038;-82
2023/07/29 05:08:44;;;;;;;;;;;;;;;24.55;47.45;100794.41;5059963;28;20383;-82
2023/07/29 05:11:09;;;;;;;;;;;;;;;24.57;47.65;100784.72;5061952;28;20369;-82
2023/07/29 05:13:35;;;;;;;;;;;;;;;24.60;47.83;100781.31;5063120;28;20391;-82
2023/07/29 05:16:00;;;;;;;;;;;;;;;24.67;47.93;100780.75;5065847;28;19920;-82
2023/07/29 05:18:25;;;;;;;;;;;;;;;24.75;48.03;100792.72;5063816;28;20126;-82
2023/07/29 05:20:51;;;;;;;;;;;;;;;24.83;48.05;100798.09;5063803;28;20004;-83
2023/07/29 05:23:16;;;;;;;;;;;;;;;24.93;48.03;100799.56;5066652;28;20290;-82
2023/07/29 05:25:41;;;;;;;;;;;;;;;25.02;47.74;100815.94;5061035;28;20401;-82
2023/07/29 05:28:07;;;;;;;;;;;;;;;25.04;47.74;100827.34;5063297;28;19931;-83
2023/07/29 05:30:33;;;;;;;;;;;;;;;25.04;47.76;100827.34;5063106;28;19945;-82
2023/07/29 05:32:59;;;;;;;;;;;;;;;25.06;47.73;100817.63;5059553;28;20317;-82
2023/07/29 05:35:24;;;;;;;;;;;;;;;25.04;47.68;100810.91;5066480;28;20476;-82
2023/07/29 05:37:50;;;;;;;;;;;;;;;25.01;47.95;100804.16;5061692;28;20273;-82
2023/07/29 05:40:15;;;;;;;;;;;;;;;25.04;48.11;100816.38;5062883;28;20031;-82
2023/07/29 05:42:40;;;;;;;;;;;;;;;25.05;48.14;100817.97;5062792;28;20319;-83
2023/07/29 05:45:06;;;;;;;;;;;;;;;25.07;48.16;100815.69;5058548;28;19963;-83
2023/07/29 05:47:32;;;;;;;;;;;;;;;25.09;48.36;100816.16;5058858;28;19920;-83
2023/07/29 05:49:57;;;;;;;;;;;;;;;25.16;48.26;100813.66;5060134;28;20453;-82
2023/07/29 05:52:22;;;;;;;;;;;;;;;25.19;48.39;100815.69;5060795;28;19916;-82
2023/07/29 05:54:47;;;;;;;;;;;;;;;25.20;48.38;100814.53;5058796;28;20449;-83
2023/07/29 05:57:13;;;;;;;;;;;;;;;25.23;48.57;100813.84;5060158;28;20288;-82
2023/07/29 05:59:38;;;;;;;;;;;;;;;25.28;48.48;100813.59;5060049;28;19952;-82
2023/07/29 06:02:04;;;;;;;;;;;;;;;25.35;48.39;100813.84;5062123;28;19959;-82
2023/07/29 06:04:29;;;;;;;;;;;;;;;25.42;48.38;100802.28;5060084;28;19917;-82
2023/07/29 06:06:55;;;;;;;;;;;;;;;25.47;48.63;100799.28;5060739;28;19956;-82
2023/07/29 06:09:21;;;;;;;;;;;;;;;25.55;48.62;100795.63;5065156;28;19928;-82
2023/07/29 06:11:46;;;;;;;;;;;;;;;25.69;48.71;100790.56;5066190;28;19981;-82
2023/07/29 06:14:11;;;;;;;;;;;;;;;25.84;48.64;100784.31;5056350;28;20323;-82
2023/07/29 06:16:37;;;;;;;;;;;;;;;26.02;48.37;100779.31;5060122;28;19916;-82
2023/07/29 06:19:02;;;;;;;;;;;;;;;26.15;48.13;100780.03;5061066;28;19923;-82
2023/07/29 06:21:27;;;;;;;;;;;;;;;26.24;48.23;100777.13;5066112;28;20444;-82
2023/07/29 06:23:53;;;;;;;;;;;;;;;26.36;48.24;100777.06;5063175;28;19924;-82
2023/07/29 06:26:18;;;;;;;;;;;;;;;26.54;48.13;100781.06;5061925;28;19925;-83
2023/07/29 06:28:43;;;;;;;;;;;;;;;26.69;47.83;100780.25;5060138;28;19930;-82
2023/07/29 06:31:09;;;;;;;;;;;;;;;26.82;47.95;100780.16;5063757;28;19959;-82
2023/07/29 06:33:34;;;;;;;;;;;;;;;26.95;47.67;100770.66;5057606;28;19928;-82
2023/07/29 06:35:59;;;;;;;;;;;;;;;27.10;47.57;100767.06;5062936;28;19934;-82
2023/07/29 06:38:24;;;;;;;;;;;;;;;27.25;47.29;100768.97;5063065;28;19920;-82
2023/07/29 06:40:50;;;;;;;;;;;;;;;27.34;47.15;100768.78;5062919;28;19943;-82
2023/07/29 06:43:15;;;;;;;;;;;;;;;27.36;47.13;100771.97;5057886;28;20028;-82
2023/07/29 06:45:41;;;;;;;;;;;;;;;27.40;47.49;100767.34;5059186;28;20003;-82
2023/07/29 06:48:06;;;;;;;;;;;;;;;27.49;47.24;100780.91;5061592;28;19925;-82
2023/07/29 06:50:32;;;;;;;;;;;;;;;27.61;47.21;100773.28;5059329;28;19921;-82
2023/07/29 06:52:57;;;;;;;;;;;;;;;27.77;47.34;100769.69;5065634;28;19994;-82
2023/07/29 06:55:22;;;;;;;;;;;;;;;27.95;46.96;100777.13;5064436;28;19921;-83
2023/07/29 06:57:48;;;;;;;;;;;;;;;28.07;46.66;100775.38;5064070;28;19917;-82
2023/07/29 07:00:13;;;;;;;;;;;;;;;28.09;46.33;100776.59;5065015;28;20052;-83
2023/07/29 07:02:38;;;;;;;;;;;;;;;28.07;45.96;100778.13;5062523;28;20490;-82
2023/07/29 07:05:04;;;;;;;;;;;;;;;27.94;46.15;100772.78;5058703;28;20023;-83
2023/07/29 07:07:30;;;;;;;;;;;;;;;27.83;46.56;100773.72;5064820;28;19991;-82
2023/07/29 07:09:56;;;;;;;;;;;;;;;27.85;46.41;100777.72;5061283;28;20755;-82
2023/07/29 07:12:21;;;;;;;;;;;;;;;27.88;46.78;100767.94;5059910;28;20391;-85
2023/07/29 07:14:47;;;;;;;;;;;;;;;27.92;46.64;100766.84;5058221;28;19920;-91
2023/07/29 07:17:12;;;;;;;;;;;;;;;27.92;46.71;100766.84;5066913;28;20016;-87
2023/07/29 07:19:37;;;;;;;;;;;;;;;27.94;46.67;100760.97;5061460;28;19916;-88
2023/07/29 07:22:03;;;;;;;;;;;;;;;28.04;46.95;100762.34;5056895;28;19917;-85
2023/07/29 07:24:28;;;;;;;;;;;;;;;28.22;46.79;100760.69;5060830;28;19916;-89
2023/07/29 07:26:53;;;;;;;;;;;;;;;28.42;46.32;100765.00;5058942;28;20406;-88
2023/07/29 07:29:19;;;;;;;;;;;;;;;28.53;46.28;100757.69;5057733;28;19925;-88
2023/07/29 07:31:49;;;;;;;;;;;;;;;28.67;46.11;100745.28;5059919;28;19927;-86
2023/07/29 07:34:14;;;;;;;;;;;;;;;28.88;45.89;100751.16;5063789;28;20375;-86
2023/07/29 07:36:40;;;;;;;;;;;;;;;29.10;45.70;100746.75;5061150;28;19971;-86
2023/07/29 07:39:06;;;;;;;;;;;;;;;29.30;45.71;100747.41;5057477;28;19952;-87
2023/07/29 07:41:31;;;;;;;;;;;;;;;29.47;45.25;100746.84;5059584;28;20001;-84
2023/07/29 07:43:56;;;;;;;;;;;;;;;29.65;44.93;100744.28;5067958;28;19920;-86
2023/07/29 07:46:22;;;;;;;;;;;;;;;29.65;44.53;100734.03;5059610;28;19924;-87
2023/07/29 07:48:47;;;;;;;;;;;;;;;29.69;44.74;100734.88;5060609;28;19924;-86
2023/07/29 07:51:13;;;;;;;;;;;;;;;29.79;44.43;100734.19;5058504;28;19916;-86
2023/07/29 07:53:38;;;;;;;;;;;;;;;29.90;44.21;100739.03;5058152;28;19917;-87
2023/07/29 07:56:03;;;;;;;;;;;;;;;29.94;44.47;100731.56;5056670;28;20002;-86
2023/07/29 07:58:29;;;;;;;;;;;;;;;30.04;44.26;100719.88;5063025;28;19955;-87
2023/07/29 08:01:00;;;;;;;;;;;;;;;30.23;43.79;100729.91;5055896;28;20365;-84
2023/07/29 08:03:26;;;;;;;;;;;;;;;30.38;43.60;100729.63;5058164;28;20096;-85
2023/07/29 08:05:51;;;;;;;;;;;;;;;30.50;43.47;100725.75;5055899;28;20190;-84
2023/07/29 08:08:16;;;;;;;;;;;;;;;30.58;43.41;100726.63;5056955;28;19928;-84
2023/07/29 08:10:42;;;;;;;;;;;;;;;30.62;42.66;100736.53;5056389;28;19925;-86
2023/07/29 08:13:07;;;;;;;;;;;;;;;30.60;43.14;100729.78;5055677;28;19916;-87
2023/07/29 08:15:33;;;;;;;;;;;;;;;30.67;43.10;100729.84;5059405;28;19924;-85
2023/07/29 08:17:58;;;;;;;;;;;;;;;30.77;42.63;100726.38;5056109;28;19934;-86
2023/07/29 08:20:23;;;;;;;;;;;;;;;30.85;42.53;100719.69;5060456;28;19920;-87
2023/07/29 08:22:49;;;;;;;;;;;;;;;30.91;42.22;100723.69;5063615;28;19923;-87
2023/07/29 08:25:14;;;;;;;;;;;;;;;30.91;42.64;100723.69;5064578;28;19924;-86
2023/07/29 08:27:39;;;;;;;;;;;;;;;30.98;42.31;100718.19;5059538;28;20334;-87
2023/07/29 08:30:05;;;;;;;;;;;;;;;31.08;42.49;100707.56;5067277;28;19950;-86
2023/07/29 08:32:30;;;;;;;;;;;;;;;31.25;42.28;100701.34;5066561;28;19916;-86
2023/07/29 08:34:55;;;;;;;;;;;;;;;31.45;42.27;100693.50;5063097;28;19920;-87
2023/07/29 08:37:21;;;;;;;;;;;;;;;31.67;41.42;100699.88;5063582;28;20147;-86
2023/07/29 08:39:46;;;;;;;;;;;;;;;31.76;41.45;100698.34;5061330;28;20387;-86
2023/07/29 08:42:12;;;;;;;;;;;;;;;31.89;41.11;100687.66;5060835;28;19939;-86
2023/07/29 08:44:41;;;;;;;;;;;;;;;32.05;40.87;100692.81;5064521;28;19924;-84
2023/07/29 08:47:06;;;;;;;;;;;;;;;32.22;40.93;100683.72;5064487;28;19920;-87
2023/07/29 08:49:32;;;;;;;;;;;;;;;32.33;40.16;100680.97;5061997;28;20372;-85
2023/07/29 08:51:58;;;;;;;;;;;;;;;32.40;39.99;100683.72;5064202;28;19924;-84
2023/07/29 08:54:23;;;;;;;;;;;;;;;32.37;39.79;100682.56;5066237;28;19916;-85
2023/07/29 08:56:49;;;;;;;;;;;;;;;32.33;39.83;100684.53;5061245;28;20399;-85
2023/07/29 08:59:16;;;;;;;;;;;;;;;32.37;39.59;100682.56;5063289;28;19921;-87
2023/07/29 09:01:42;;;;;;;;;;;;;;;32.44;38.71;100684.50;5068782;28;19920;-84
2023/07/29 09:04:08;;;;;;;;;;;;;;;32.44;39.14;100676.97;5064186;28;19916;-86
2023/07/29 09:06:34;;;;;;;;;;;;;;;32.54;39.07;100675.41;5062773;28;19924;-87
2023/07/29 09:09:00;;;;;;;;;;;;;;;32.68;39.05;100664.28;5059978;28;20027;-88
2023/07/29 09:11:26;;;;;;;;;;;;;;;32.86;38.59;100677.31;5067671;28;20019;-91
2023/07/29 09:13:52;;;;;;;;;;;;;;;32.88;38.51;100667.41;5065874;28;21760;-87
2023/07/29 09:16:18;;;;;;;;;;;;;;;32.85;38.32;100679.28;5066245;28;20133;-88
2023/07/29 09:18:43;;;;;;;;;;;;;;;32.83;38.21;100675.34;5061109;28;20003;-87
2023/07/29 09:21:09;;;;;;;;;;;;;;;32.70;37.62;100661.09;5065503;28;20367;-85
2023/07/29 09:23:44;;;;;;;;;;;;;;;32.66;38.35;100661.06;5065856;28;19913;-82
2023/07/29 09:26:10;;;;;;;;;;;;;;;32.73;38.22;100649.97;5064136;28;19920;-85
2023/07/29 09:28:39;;;;;;;;;;;;;;;32.92;37.68;100645.19;5060233;28;19928;-84
2023/07/29 09:31:04;;;;;;;;;;;;;;;33.11;37.72;100641.91;5065440;28;20053;-85
2023/07/29 09:33:34;;;;;;;;;;;;;;;33.27;37.42;100645.00;5060245;28;20337;-85
2023/07/29 09:36:00;;;;;;;;;;;;;;;33.39;37.00;100640.19;5068235;28;19917;-84
2023/07/29 09:38:28;;;;;;;;;;;;;;;33.49;37.05;100642.91;5070410;28;20320;-85
2023/07/29 09:40:57;;;;;;;;;;;;;;;33.64;36.62;100636.06;5061458;28;19944;-83
2023/07/29 09:43:29;;;;;;;;;;;;;;;33.79;35.94;100630.41;5059079;28;19916;-83
2023/07/29 09:45:55;;;;;;;;;;;;;;;33.95;36.68;100627.94;5066269;28;19925;-83
2023/07/29 09:48:23;;;;;;;;;;;;;;;34.06;35.81;100630.59;5060989;28;19962;-87
2023/07/29 09:50:48;;;;;;;;;;;;;;;33.98;35.92;100626.31;5059705;28;20054;-84
2023/07/29 09:53:14;;;;;;;;;;;;;;;34.13;36.40;100622.19;5055959;28;20019;-82
2023/07/29 09:55:39;;;;;;;;;;;;;;;34.33;36.09;100620.41;5063684;28;20396;-85
2023/07/29 09:58:08;;;;;;;;;;;;;;;34.39;35.54;100613.22;5062465;28;19917;-82
2023/07/29 10:00:34;;;;;;;;;;;;;;;34.48;35.12;100615.50;5055560;28;20008;-85
2023/07/29 10:03:00;;;;;;;;;;;;;;;34.50;35.43;100610.31;5057344;28;19925;-85
2023/07/29 10:05:26;;;;;;;;;;;;;;;34.43;35.72;100602.03;5056409;28;20316;-86
2023/07/29 10:07:52;;;;;;;;;;;;;;;34.36;35.25;100600.13;5056151;28;20054;-82
2023/07/29 10:10:17;;;;;;;;;;;;;;;34.19;35.43;100593.53;5063282;28;20634;-86
2023/07/29 10:12:43;;;;;;;;;;;;;;;34.11;35.74;100592.03;5063034;28;20011;-83
2023/07/29 10:15:09;;;;;;;;;;;;;;;34.24;35.74;100581.16;5057595;28;20058;-87
2023/07/29 10:17:35;;;;;;;;;;;;;;;34.49;35.75;100584.50;5062752;28;19916;-83
2023/07/29 10:20:01;;;;;;;;;;;;;;;34.62;35.25;100592.28;5063295;28;19924;-86
2023/07/29 10:22:31;;;;;;;;;;;;;;;34.64;35.00;100595.44;5053475;28;19920;-85
2023/07/29 10:25:04;;;;;;;;;;;;;;;34.53;35.29;100582.44;5060973;28;19924;-86
2023/07/29 10:27:30;;;;;;;;;;;;;;;34.41;35.03;100585.75;5059014;28;20007;-85
2023/07/29 10:29:56;;;;;;;;;;;;;;;34.31;35.13;100586.66;5065131;28;21608;-84
2023/07/29 10:32:24;;;;;;;;;;;;;;;34.18;35.09;100580.03;5064429;28;20375;-84
2023/07/29 10:34:50;;;;;;;;;;;;;;;34.06;34.81;100570.22;5066362;28;19931;-84
2023/07/29 10:37:15;;;;;;;;;;;;;;;33.90;35.10;100570.78;5060010;28;19924;-84
2023/07/29 10:39:51;;;;;;;;;;;;;;;33.90;35.57;100564.41;5060591;28;19950;-86
2023/07/29 10:42:17;;;;;;;;;;;;;;;34.04;35.61;100560.72;5065540;28;19966;-86
2023/07/29 10:44:49;;;;;;;;;;;;;;;34.24;35.25;100562.47;5067689;28;19964;-84
2023/07/29 10:47:22;;;;;;;;;;;;;;;34.25;34.52;100557.72;5062744;28;19917;-86
2023/07/29 10:49:55;;;;;;;;;;;;;;;34.25;34.80;100550.16;5062646;28;20609;-85
2023/07/29 10:52:35;;;;;;;;;;;;;;;34.03;34.99;100550.81;5063070;28;20388;-85
2023/07/29 10:55:01;;;;;;;;;;;;;;;33.78;35.27;100553.81;5061744;28;19924;-85
2023/07/29 10:57:31;;;;;;;;;;;;;;;33.83;35.98;100551.38;5059300;28;19916;-86
2023/07/29 10:59:56;;;;;;;;;;;;;;;33.96;35.25;100546.13;5062020;28;19963;-83
2023/07/29 11:02:27;;;;;;;;;;;;;;;34.00;35.26;100554.41;5061441;28;19951;-87
2023/07/29 11:04:53;;;;;;;;;;;;;;;33.94;35.07;100551.31;5061074;28;20400;-85
2023/07/29 11:07:23;;;;;;;;;;;;;;;33.77;34.68;100555.00;5063431;28;19930;-83
2023/07/29 11:09:51;;;;;;;;;;;;;;;33.73;35.22;100546.69;5056065;28;19927;-84
2023/07/29 11:12:35;;;;;;;;;;;;;;;33.84;35.33;100541.03;5063293;28;19947;-84
2023/07/29 11:15:09;;;;;;;;;;;;;;;34.04;34.85;100546.81;5060469;28;19930;-87
2023/07/29 11:17:34;;;;;;;;;;;;;;;34.23;34.73;100535.09;5063316;28;19920;-83
2023/07/29 11:20:03;;;;;;;;;;;;;;;34.33;34.81;100531.41;5062225;28;20575;-87
2023/07/29 11:22:30;;;;;;;;;;;;;;;34.46;34.34;100532.44;5066336;28;20129;-86
2023/07/29 11:24:56;;;;;;;;;;;;;;;34.28;34.48;100531.06;5062655;28;20015;-87
2023/07/29 11:27:21;;;;;;;;;;;;;;;34.21;33.89;100537.50;5067144;28;20051;-86
2023/07/29 11:29:47;;;;;;;;;;;;;;;34.03;34.15;100526.56;5068696;28;20414;-88
2023/07/29 11:32:12;;;;;;;;;;;;;;;33.90;34.48;100531.84;5068724;28;19916;-88
2023/07/29 11:34:39;;;;;;;;;;;;;;;33.80;34.33;100521.63;5061238;28;19917;-83
2023/07/29 11:37:06;;;;;;;;;;;;;;;33.78;34.29;100512.91;5062548;28;19917;-84
2023/07/29 11:39:32;;;;;;;;;;;;;;;33.82;34.27;100519.22;5062566;28;19927;-83
2023/07/29 11:41:57;;;;;;;;;;;;;;;33.72;34.74;100506.22;5062726;28;19921;-86
2023/07/29 11:44:23;;;;;;;;;;;;;;;33.58;34.45;100507.16;5057711;28;19923;-84
2023/07/29 11:46:48;;;;;;;;;;;;;;;33.55;34.64;100509.94;5062044;28;20041;-88
2023/07/29 11:49:14;;;;;;;;;;;;;;;33.48;34.48;100521.13;5055687;28;20423;-90
2023/07/29 11:51:41;;;;;;;;;;;;;;;33.38;34.70;100505.31;5058460;28;19923;-86
2023/07/29 11:54:06;;;;;;;;;;;;;;;33.34;35.01;100510.91;5064733;28;19920;-87
2023/07/29 11:56:32;;;;;;;;;;;;;;;33.47;34.88;100508.44;5065633;28;19917;-90
2023/07/29 11:58:57;;;;;;;;;;;;;;;33.44;34.90;100498.16;5067632;28;19920;-88
2023/07/29 12:01:23;;;;;;;;;;;;;;;33.37;34.78;100503.75;5063966;28;19925;-89
2023/07/29 12:03:49;;;;;;;;;;;;;;;33.28;34.72;100502.22;5069529;28;20597;-86
2023/07/29 12:06:15;;;;;;;;;;;;;;;33.22;35.24;100501.09;5067473;28;19924;-88
2023/07/29 12:08:41;;;;;;;;;;;;;;;33.13;35.21;100513.81;5060817;28;19978;-90
2023/07/29 12:11:06;;;;;;;;;;;;;;;33.00;35.21;100513.50;5065288;28;19962;-87
2023/07/29 12:13:32;;;;;;;;;;;;;;;32.82;35.57;100510.06;5066815;28;19956;-88
2023/07/29 12:16:04;;;;;;;;;;;;;;;32.62;35.77;100509.72;5066871;28;19971;-87
2023/07/29 12:18:32;;;;;;;;;;;;;;;32.53;35.78;100504.66;5066997;28;19917;-90
2023/07/29 12:20:58;;;;;;;;;;;;;;;32.43;36.22;100500.72;5058849;28;19930;-84
2023/07/29 12:23:27;;;;;;;;;;;;;;;32.46;36.05;100501.88;5067140;28;19920;-86
2023/07/29 12:25:59;;;;;;;;;;;;;;;32.44;35.86;100507.03;5061968;28;19928;-91
2023/07/29 12:28:24;;;;;;;;;;;;;;;32.41;35.71;100511.41;5064644;28;19948;-86
2023/07/29 12:30:53;;;;;;;;;;;;;;;32.32;35.81;100515.81;5063853;28;19951;-91